createdAt,value
2023-10-23T00:04:36.009Z,6.50
2023-10-23T00:14:39.862Z,5.63
2023-10-23T00:19:41.582Z,4.97
2023-10-23T00:24:43.193Z,5.57
2023-10-23T00:29:44.821Z,5.27
2023-10-23T00:34:46.391Z,5.30
2023-10-23T00:39:48.112Z,4.90
2023-10-23T00:44:49.706Z,5.10
2023-10-23T00:49:51.691Z,5.60
2023-10-23T00:54:53.987Z,5.30
2023-10-23T00:59:56.323Z,5.50
2023-10-23T01:04:57.983Z,5.60
2023-10-23T01:09:59.798Z,5.50
2023-10-23T01:15:01.386Z,5.50
2023-10-23T01:20:04.281Z,5.38
2023-10-23T01:25:14.663Z,5.38
2023-10-23T01:30:16.325Z,5.43
2023-10-23T01:35:17.993Z,5.87
2023-10-23T01:40:19.827Z,8.70
2023-10-23T01:45:21.438Z,10.53
2023-10-23T01:50:23.115Z,11.20
2023-10-23T01:55:24.797Z,8.93
2023-10-23T02:00:26.961Z,7.97
2023-10-23T02:05:28.654Z,6.78
2023-10-23T02:10:30.435Z,6.85
2023-10-23T02:15:32.179Z,7.20
2023-10-23T02:20:33.769Z,7.40
2023-10-23T02:25:35.361Z,6.50
2023-10-23T02:30:37.688Z,7.27
2023-10-23T02:35:39.408Z,8.30
2023-10-23T02:40:41.180Z,8.20
2023-10-23T02:45:42.733Z,7.80
2023-10-23T02:50:56.048Z,7.45
2023-10-23T02:55:57.633Z,7.38
2023-10-23T03:00:59.199Z,7.60
2023-10-23T03:06:00.812Z,7.60
2023-10-23T03:11:02.362Z,7.43
2023-10-23T03:16:05.058Z,8.10
2023-10-23T03:21:06.726Z,7.70
2023-10-23T03:26:08.552Z,7.33
2023-10-23T03:31:10.195Z,8.30
2023-10-23T03:36:11.808Z,8.40
2023-10-23T03:41:13.482Z,8.60
2023-10-23T03:46:15.221Z,8.17
2023-10-23T03:51:16.822Z,8.37
2023-10-23T03:56:18.540Z,8.88
2023-10-23T04:01:20.168Z,9.13
2023-10-23T04:06:21.932Z,10.40
2023-10-23T04:11:23.762Z,9.07
2023-10-23T04:16:25.371Z,8.40
2023-10-23T04:21:27.062Z,11.02
2023-10-23T04:26:28.846Z,9.07
2023-10-23T04:31:30.576Z,11.17
2023-10-23T04:36:32.175Z,9.57
2023-10-23T04:41:33.814Z,9.03
2023-10-23T04:46:35.350Z,9.70
2023-10-23T04:51:37.117Z,10.27
2023-10-23T04:56:40.633Z,10.83
2023-10-23T05:01:42.272Z,10.50
2023-10-23T05:06:44.015Z,10.57
2023-10-23T05:11:45.635Z,9.97
2023-10-23T05:16:47.594Z,10.67
2023-10-23T05:21:49.281Z,10.30
2023-10-23T05:26:50.880Z,13.85
2023-10-23T05:31:52.433Z,13.73
2023-10-23T05:36:54.145Z,10.95
2023-10-23T05:41:55.771Z,11.23
2023-10-23T05:46:57.477Z,11.18
2023-10-23T05:51:59.108Z,11.53
2023-10-23T05:57:01.224Z,10.00
2023-10-23T06:02:02.824Z,10.15
2023-10-23T06:07:04.641Z,12.25
2023-10-23T06:12:07.475Z,13.60
2023-10-23T06:22:10.759Z,16.65
2023-10-23T06:27:12.489Z,13.37
2023-10-23T06:32:14.481Z,12.67
2023-10-23T06:37:18.243Z,12.85
2023-10-23T06:42:19.954Z,12.90
2023-10-23T06:47:22.411Z,12.05
2023-10-23T06:52:24.049Z,12.30
2023-10-23T06:57:25.692Z,10.77
2023-10-23T07:02:27.273Z,10.63
2023-10-23T07:07:30.545Z,9.67
2023-10-23T07:12:32.578Z,9.10
2023-10-23T07:17:35.393Z,8.17
2023-10-23T07:22:37.788Z,8.63
2023-10-23T07:27:42.192Z,9.15
2023-10-23T07:32:44.356Z,8.48
2023-10-23T07:37:46.057Z,9.15
2023-10-23T07:42:47.691Z,10.10
2023-10-23T07:47:49.933Z,8.63
2023-10-23T07:52:52.691Z,8.35
2023-10-23T07:57:54.427Z,9.45
2023-10-23T08:02:56.341Z,11.57
2023-10-23T08:07:58.518Z,10.15
2023-10-23T08:13:00.624Z,10.52
2023-10-23T08:18:02.940Z,11.45
2023-10-23T08:23:04.666Z,10.70
2023-10-23T08:28:06.308Z,10.00
2023-10-23T08:33:08.642Z,11.40
2023-10-23T08:38:10.248Z,11.10
2023-10-23T08:43:12.247Z,9.77
2023-10-23T08:48:14.352Z,9.50
2023-10-23T08:53:16.393Z,10.05
2023-10-23T08:58:19.077Z,8.68
2023-10-23T09:04:02.573Z,8.18
2023-10-23T09:08:44.442Z,8.32
2023-10-23T09:13:45.987Z,7.30
2023-10-23T09:18:52.758Z,7.67
2023-10-23T09:23:56.996Z,7.40
2023-10-23T09:28:58.500Z,7.70
2023-10-23T09:34:01.726Z,7.50
2023-10-23T09:39:04.020Z,7.32
2023-10-23T09:44:06.070Z,8.20
2023-10-23T09:49:07.754Z,7.93
2023-10-23T09:54:17.962Z,9.02
2023-10-23T09:59:22.426Z,6.72
2023-10-23T10:04:30.369Z,6.50
2023-10-23T10:09:33.288Z,5.80
2023-10-23T10:14:35.375Z,5.65
2023-10-23T10:19:38.811Z,5.03
2023-10-23T10:24:41.384Z,5.00
2023-10-23T10:29:44.085Z,4.82
2023-10-23T10:34:55.928Z,4.80
2023-10-23T10:39:59.301Z,4.60
2023-10-23T10:45:07.628Z,4.22
2023-10-23T10:50:11.449Z,4.35
2023-10-23T10:55:14.075Z,4.30
2023-10-23T11:00:16.317Z,4.63
2023-10-23T11:05:17.903Z,4.03
2023-10-23T11:10:21.761Z,3.35
2023-10-23T11:15:23.435Z,2.88
2023-10-23T11:20:29.462Z,3.55
2023-10-23T11:25:31.338Z,2.10
2023-10-23T11:30:32.969Z,2.03
2023-10-23T11:35:34.674Z,1.80
2023-10-23T11:40:36.624Z,1.77
2023-10-23T11:45:40.488Z,2.15
2023-10-23T11:50:43.608Z,2.22
2023-10-23T11:55:45.830Z,2.22
2023-10-23T12:05:49.219Z,2.97
2023-10-23T12:10:51.149Z,3.50
2023-10-23T12:15:52.781Z,3.80
2023-10-23T12:20:56.064Z,4.13
2023-10-23T12:25:58.847Z,4.32
2023-10-23T12:31:00.458Z,3.72
2023-10-23T12:36:05.197Z,2.90
2023-10-23T12:41:06.928Z,2.78
2023-10-23T12:46:09.244Z,3.10
2023-10-23T12:51:11.694Z,2.45
2023-10-23T13:01:14.801Z,3.00
2023-10-23T13:06:16.657Z,3.45
2023-10-23T13:11:18.259Z,3.10
2023-10-23T13:16:20.010Z,2.33
2023-10-23T13:21:31.446Z,3.25
2023-10-23T13:26:38.682Z,3.67
2023-10-23T13:31:40.417Z,4.40
2023-10-23T13:36:42.161Z,4.22
2023-10-23T13:41:44.178Z,4.22
2023-10-23T13:46:46.459Z,4.75
2023-10-23T13:51:48.170Z,4.32
2023-10-23T13:56:49.710Z,4.40
2023-10-23T14:01:51.322Z,4.77
2023-10-23T14:06:52.982Z,5.03
2023-10-23T14:11:54.539Z,4.70
2023-10-23T14:17:02.308Z,4.75
2023-10-23T14:22:04.042Z,5.38
2023-10-23T14:27:05.673Z,5.22
2023-10-23T14:32:07.413Z,5.45
2023-10-23T14:37:09.244Z,5.20
2023-10-23T14:42:11.284Z,5.25
2023-10-23T14:47:13.654Z,5.45
2023-10-23T14:52:15.624Z,5.30
2023-10-23T14:57:17.246Z,5.53
2023-10-23T15:02:18.908Z,5.63
2023-10-23T15:07:20.523Z,5.53
2023-10-23T15:12:22.583Z,4.70
2023-10-23T15:17:24.385Z,5.07
2023-10-23T15:22:27.143Z,4.93
2023-10-23T15:27:28.885Z,4.45
2023-10-23T15:32:32.911Z,4.85
2023-10-23T15:37:34.605Z,4.72
2023-10-23T15:42:36.189Z,4.10
2023-10-23T15:47:37.837Z,4.43
2023-10-23T15:52:39.485Z,4.78
2023-10-23T15:57:41.147Z,4.95
2023-10-23T16:02:42.736Z,5.40
2023-10-23T16:07:44.399Z,4.93
2023-10-23T16:12:46.044Z,5.67
2023-10-23T16:17:48.051Z,6.00
2023-10-23T16:22:49.721Z,5.40
2023-10-23T16:27:53.689Z,5.27
2023-10-23T16:32:56.998Z,5.78
2023-10-23T16:37:59.325Z,5.65
2023-10-23T16:43:02.427Z,5.30
2023-10-23T16:48:04.751Z,9.07
2023-10-23T16:53:07.145Z,6.60
2023-10-23T17:03:13.424Z,6.00
2023-10-23T17:08:21.341Z,5.93
2023-10-23T17:13:27.903Z,6.53
2023-10-23T17:18:31.350Z,6.25
2023-10-23T17:23:35.859Z,7.97
2023-10-23T17:28:40.086Z,6.93
2023-10-23T17:33:43.303Z,6.25
2023-10-23T17:38:48.510Z,6.80
2023-10-23T17:43:53.548Z,7.13
2023-10-23T17:48:57.209Z,6.30
2023-10-23T17:54:05.681Z,8.43
2023-10-23T17:59:09.938Z,6.90
2023-10-23T18:04:13.512Z,9.05
2023-10-23T18:09:17.288Z,12.77
2023-10-23T18:14:25.420Z,12.48
2023-10-23T18:19:30.300Z,12.50
2023-10-23T18:24:34.599Z,13.65
2023-10-23T18:29:41.957Z,13.40
2023-10-23T18:34:46.811Z,14.75
2023-10-23T18:39:50.741Z,12.52
2023-10-23T18:44:55.887Z,13.23
2023-10-23T18:50:02.497Z,13.00
2023-10-23T18:55:06.372Z,13.05
2023-10-23T19:00:11.019Z,15.40
2023-10-23T19:05:14.897Z,14.32
2023-10-23T19:10:21.485Z,15.13
2023-10-23T19:15:24.907Z,15.65
2023-10-23T19:20:28.910Z,15.00
2023-10-23T19:25:33.511Z,13.77
2023-10-23T19:30:38.503Z,15.27
2023-10-23T19:35:42.290Z,16.23
2023-10-23T19:40:51.412Z,24.98
2023-10-23T19:45:55.129Z,24.42
2023-10-23T19:51:01.859Z,18.70
2023-10-23T19:56:06.645Z,17.02
2023-10-23T20:01:10.122Z,17.23
2023-10-23T20:06:14.142Z,16.90
2023-10-23T20:11:18.175Z,20.38
2023-10-23T20:16:21.156Z,22.42
2023-10-23T20:21:23.875Z,21.17
2023-10-23T20:26:25.605Z,21.33
2023-10-23T20:31:27.336Z,19.73
2023-10-23T20:36:29.052Z,20.17
2023-10-23T20:41:30.619Z,18.60
2023-10-23T20:46:32.597Z,18.35
2023-10-23T20:51:34.216Z,17.00
2023-10-23T20:56:35.969Z,16.67
2023-10-23T21:01:37.845Z,25.57
2023-10-23T21:06:39.452Z,20.23
2023-10-23T21:11:41.180Z,21.60
2023-10-23T21:16:43.317Z,19.73
2023-10-23T21:21:46.613Z,23.00
2023-10-23T21:26:49.136Z,23.08
2023-10-23T21:31:52.919Z,21.83
2023-10-23T21:36:54.824Z,23.10
2023-10-23T21:41:56.409Z,23.93
2023-10-23T21:46:58.043Z,23.58
2023-10-23T21:52:00.367Z,22.20
2023-10-23T21:57:22.597Z,21.10
2023-10-23T22:02:24.186Z,20.63
2023-10-23T22:07:26.038Z,18.63
2023-10-23T22:12:27.978Z,20.23
2023-10-23T22:17:29.562Z,20.48
2023-10-23T22:22:31.411Z,17.87
2023-10-23T22:27:34.940Z,17.67
2023-10-23T22:32:36.795Z,18.60
2023-10-23T22:38:00.234Z,19.50
2023-10-23T22:43:00.100Z,19.80
2023-10-23T22:48:01.716Z,19.37
2023-10-23T22:53:03.629Z,19.60
2023-10-23T22:58:06.578Z,18.60
2023-10-23T23:03:08.632Z,18.15
2023-10-23T23:08:13.627Z,20.90
2023-10-23T23:13:15.609Z,19.20
2023-10-23T23:18:20.105Z,19.75
2023-10-23T23:23:22.004Z,19.02
2023-10-23T23:28:23.636Z,20.75
2023-10-23T23:33:25.387Z,20.47
2023-10-23T23:38:27.013Z,21.53
2023-10-23T23:43:28.646Z,21.47
2023-10-23T23:48:30.452Z,21.63
2023-10-23T23:53:32.000Z,22.90
2023-10-23T23:58:33.674Z,21.25
